createdAt,value
2018-12-15T00:04:20.579Z,31.77
2018-12-15T00:09:41.571Z,32.00
2018-12-15T00:14:43.887Z,26.07
2018-12-15T00:19:46.145Z,29.13
2018-12-15T00:24:48.609Z,27.50
2018-12-15T00:29:50.913Z,26.47
2018-12-15T00:34:53.163Z,25.23
2018-12-15T00:39:55.529Z,25.50
2018-12-15T00:44:57.815Z,28.80
2018-12-15T00:50:00.045Z,40.40
2018-12-15T00:55:02.526Z,45.80
2018-12-15T01:00:05.087Z,46.67
2018-12-15T01:05:07.418Z,44.30
2018-12-15T01:10:09.645Z,49.07
2018-12-15T01:15:12.004Z,49.67
2018-12-15T01:20:14.281Z,47.10
2018-12-15T01:25:16.556Z,49.00
2018-12-15T01:30:18.870Z,46.57
2018-12-15T01:35:21.145Z,47.73
2018-12-15T01:40:23.383Z,47.20
2018-12-15T01:45:25.600Z,49.23
2018-12-15T01:50:27.810Z,43.83
2018-12-15T01:55:30.205Z,55.03
2018-12-15T02:00:32.483Z,58.27
2018-12-15T02:05:34.675Z,52.83
2018-12-15T02:10:37.073Z,48.13
2018-12-15T02:15:39.375Z,53.83
2018-12-15T02:20:41.847Z,56.53
2018-12-15T02:25:44.225Z,55.63
2018-12-15T02:30:47.697Z,53.43
2018-12-15T02:35:50.371Z,52.90
2018-12-15T02:40:52.593Z,56.73
2018-12-15T02:45:54.913Z,54.20
2018-12-15T02:50:57.169Z,57.20
2018-12-15T02:55:59.426Z,58.73
2018-12-15T03:01:03.151Z,52.00
2018-12-15T03:06:06.595Z,56.63
2018-12-15T03:11:08.822Z,54.50
2018-12-15T03:16:11.080Z,48.03
2018-12-15T03:21:13.357Z,54.33
2018-12-15T03:26:15.567Z,53.87
2018-12-15T03:31:17.889Z,48.63
2018-12-15T03:36:20.167Z,47.60
2018-12-15T03:41:22.517Z,49.60
2018-12-15T03:46:25.797Z,43.87
2018-12-15T03:51:28.149Z,46.67
2018-12-15T03:56:31.125Z,42.57
2018-12-15T04:01:33.634Z,43.73
2018-12-15T04:06:35.951Z,46.20
2018-12-15T04:11:38.202Z,39.00
2018-12-15T04:16:40.661Z,37.33
2018-12-15T04:21:42.887Z,35.60
2018-12-15T04:26:45.124Z,37.87
2018-12-15T04:31:49.432Z,38.77
2018-12-15T04:36:51.632Z,39.67
2018-12-15T04:41:53.843Z,36.93
2018-12-15T04:46:56.538Z,36.23
2018-12-15T04:51:58.721Z,33.90
2018-12-15T04:57:00.913Z,32.90
2018-12-15T05:02:03.419Z,29.27
2018-12-15T05:07:05.744Z,29.50
2018-12-15T05:12:08.055Z,29.93
2018-12-15T05:17:10.475Z,28.10
2018-12-15T05:22:13.238Z,27.70
2018-12-15T05:27:15.801Z,26.77
2018-12-15T05:32:18.077Z,28.20
2018-12-15T05:37:20.351Z,27.87
2018-12-15T05:42:22.594Z,28.53
2018-12-15T05:47:24.840Z,29.53
2018-12-15T05:52:27.213Z,31.23
2018-12-15T05:57:29.471Z,32.87
2018-12-15T06:02:32.159Z,33.23
2018-12-15T06:07:34.562Z,30.83
2018-12-15T06:12:36.928Z,28.77
2018-12-15T06:17:39.519Z,33.97
2018-12-15T06:22:41.724Z,31.13
2018-12-15T06:27:44.079Z,29.73
2018-12-15T06:32:46.420Z,31.43
2018-12-15T06:37:48.779Z,29.47
2018-12-15T06:42:53.249Z,33.33
2018-12-15T06:47:55.451Z,28.43
2018-12-15T06:52:58.504Z,28.67
2018-12-15T06:58:00.825Z,30.37
2018-12-15T07:03:03.062Z,33.20
2018-12-15T07:08:05.343Z,34.33
2018-12-15T07:13:07.685Z,31.07
2018-12-15T07:18:11.232Z,32.10
2018-12-15T07:23:13.549Z,29.10
2018-12-15T07:28:15.917Z,32.57
2018-12-15T07:33:18.158Z,30.40
2018-12-15T07:38:20.430Z,33.13
2018-12-15T07:43:22.703Z,31.60
2018-12-15T07:48:24.978Z,34.23
2018-12-15T07:53:27.467Z,32.50
2018-12-15T07:58:29.776Z,32.70
2018-12-15T08:03:32.023Z,30.37
2018-12-15T08:08:34.347Z,30.10
2018-12-15T08:13:36.848Z,27.93
2018-12-15T08:18:39.118Z,28.13
2018-12-15T08:23:41.791Z,23.83
2018-12-15T08:28:44.191Z,25.17
2018-12-15T08:33:46.785Z,26.03
2018-12-15T08:38:49.164Z,26.90
2018-12-15T08:43:52.014Z,29.13
2018-12-15T08:48:54.249Z,24.97
2018-12-15T08:53:56.510Z,29.90
2018-12-15T08:58:58.748Z,26.03
2018-12-15T09:04:00.994Z,28.23
2018-12-15T09:09:05.409Z,27.90
2018-12-15T09:14:07.842Z,25.97
2018-12-15T09:19:11.386Z,28.27
2018-12-15T09:24:14.054Z,28.47
2018-12-15T09:29:17.168Z,27.07
2018-12-15T09:34:19.846Z,25.23
2018-12-15T09:39:22.118Z,26.00
2018-12-15T09:44:24.358Z,26.77
2018-12-15T09:49:26.729Z,25.73
2018-12-15T09:54:29.125Z,24.97
2018-12-15T09:59:33.109Z,23.27
2018-12-15T10:04:35.468Z,23.40
2018-12-15T10:09:38.112Z,23.87
2018-12-15T10:14:40.484Z,22.70
2018-12-15T10:19:43.191Z,23.73
2018-12-15T10:24:45.418Z,22.93
2018-12-15T10:29:53.553Z,22.20
2018-12-15T10:34:55.961Z,21.07
2018-12-15T10:39:58.377Z,22.47
2018-12-15T10:45:00.647Z,22.53
2018-12-15T10:50:03.602Z,20.93
2018-12-15T10:55:09.308Z,22.57
2018-12-15T11:00:19.052Z,21.07
2018-12-15T11:05:23.723Z,21.27
2018-12-15T11:10:26.045Z,17.77
2018-12-15T11:15:28.371Z,19.43
2018-12-15T11:20:30.621Z,18.37
2018-12-15T11:25:32.888Z,18.57
2018-12-15T11:30:35.279Z,21.23
2018-12-15T11:35:37.502Z,18.83
2018-12-15T11:40:40.361Z,19.97
2018-12-15T11:45:42.729Z,18.63
2018-12-15T11:50:45.003Z,21.40
2018-12-15T11:55:47.229Z,20.93
2018-12-15T12:00:49.497Z,22.40
2018-12-15T12:05:51.798Z,21.67
2018-12-15T12:10:55.194Z,22.00
2018-12-15T12:15:57.717Z,21.20
2018-12-15T12:21:00.793Z,25.47
2018-12-15T12:26:03.093Z,25.40
2018-12-15T12:31:05.389Z,26.53
2018-12-15T12:36:07.638Z,26.13
2018-12-15T12:41:11.005Z,24.30
2018-12-15T12:46:15.065Z,23.67
2018-12-15T12:51:17.741Z,24.00
2018-12-15T12:56:22.842Z,25.33
2018-12-15T13:01:25.259Z,26.73
2018-12-15T13:06:27.508Z,26.70
2018-12-15T13:11:32.806Z,31.10
2018-12-15T13:16:35.134Z,30.60
2018-12-15T13:21:37.527Z,25.70
2018-12-15T13:26:39.864Z,33.00
2018-12-15T13:31:42.538Z,28.37
2018-12-15T13:36:45.022Z,27.87
2018-12-15T13:41:47.814Z,24.03
2018-12-15T13:46:50.676Z,29.83
2018-12-15T13:51:53.275Z,30.80
2018-12-15T13:56:55.587Z,31.43
2018-12-15T14:01:57.983Z,34.57
2018-12-15T14:07:00.289Z,33.43
2018-12-15T14:12:02.548Z,36.80
2018-12-15T14:17:04.874Z,36.20
2018-12-15T14:22:07.229Z,36.83
2018-12-15T14:27:09.502Z,36.47
2018-12-15T14:32:11.738Z,35.20
2018-12-15T14:37:13.961Z,37.60
2018-12-15T14:42:16.261Z,33.67
2018-12-15T14:47:18.591Z,36.50
2018-12-15T14:52:20.819Z,34.77
2018-12-15T14:57:24.966Z,34.57
2018-12-15T15:02:27.203Z,32.03
2018-12-15T15:07:29.489Z,33.90
2018-12-15T15:12:31.709Z,34.93
2018-12-15T15:17:34.038Z,35.00
2018-12-15T15:22:36.437Z,33.37
2018-12-15T15:27:38.697Z,36.57
2018-12-15T15:32:40.972Z,36.07
2018-12-15T15:37:43.223Z,33.70
2018-12-15T15:42:45.513Z,34.63
2018-12-15T15:47:47.834Z,33.47
2018-12-15T15:52:50.119Z,34.47
2018-12-15T15:57:52.463Z,38.10
2018-12-15T16:02:55.764Z,35.13
2018-12-15T16:07:58.014Z,40.03
2018-12-15T16:13:00.267Z,39.13
2018-12-15T16:18:02.714Z,36.40
2018-12-15T16:23:05.094Z,38.67
2018-12-15T16:28:07.564Z,41.10
2018-12-15T16:33:09.821Z,38.00
2018-12-15T16:38:12.149Z,38.73
2018-12-15T16:43:14.392Z,38.43
2018-12-15T16:48:16.846Z,38.77
2018-12-15T16:53:19.088Z,39.30
2018-12-15T16:58:21.359Z,39.17
2018-12-15T17:03:30.388Z,40.60
2018-12-15T17:08:28.958Z,43.63
2018-12-15T17:13:31.212Z,38.63
2018-12-15T17:18:33.567Z,41.60
2018-12-15T17:23:37.147Z,42.17
2018-12-15T17:28:39.464Z,38.57
2018-12-15T17:33:41.727Z,40.63
2018-12-15T17:38:44.105Z,40.00
2018-12-15T17:43:46.354Z,44.40
2018-12-15T17:48:48.749Z,45.73
2018-12-15T17:53:51.102Z,42.90
2018-12-15T17:58:53.389Z,42.20
2018-12-15T18:03:55.719Z,44.33
2018-12-15T18:08:57.992Z,44.20
2018-12-15T18:14:00.238Z,42.53
2018-12-15T18:19:02.523Z,47.50
2018-12-15T18:24:04.800Z,46.27
2018-12-15T18:29:07.749Z,49.40
2018-12-15T18:34:09.998Z,58.30
2018-12-15T18:39:12.561Z,56.63
2018-12-15T18:44:14.813Z,53.73
2018-12-15T18:49:17.070Z,63.13
2018-12-15T18:54:19.389Z,60.20
2018-12-15T18:59:22.037Z,67.50
2018-12-15T19:04:24.281Z,62.47
2018-12-15T19:09:26.586Z,62.60
2018-12-15T19:14:28.909Z,60.43
2018-12-15T19:19:31.162Z,59.30
2018-12-15T19:24:33.421Z,57.43
2018-12-15T19:29:35.734Z,63.40
2018-12-15T19:34:37.988Z,56.23
2018-12-15T19:39:40.253Z,63.60
2018-12-15T19:44:42.556Z,61.83
2018-12-15T19:49:44.818Z,58.23
2018-12-15T19:54:47.081Z,56.60
2018-12-15T19:59:49.461Z,54.07
2018-12-15T20:04:51.855Z,56.40
2018-12-15T20:09:54.071Z,62.93
2018-12-15T20:14:56.365Z,55.83
2018-12-15T20:19:58.646Z,57.63
2018-12-15T20:25:00.944Z,60.50
2018-12-15T20:30:04.089Z,62.00
2018-12-15T20:35:06.894Z,60.00
2018-12-15T20:40:09.383Z,61.90
2018-12-15T20:45:11.788Z,60.60
2018-12-15T20:50:14.222Z,62.47
2018-12-15T20:55:16.537Z,63.53
2018-12-15T21:00:18.898Z,57.43
2018-12-15T21:05:21.438Z,57.20
2018-12-15T21:10:23.677Z,60.07
2018-12-15T21:15:28.802Z,58.67
2018-12-15T21:20:31.047Z,57.00
2018-12-15T21:25:34.679Z,61.17
2018-12-15T21:30:36.946Z,58.53
2018-12-15T21:35:39.206Z,64.20
2018-12-15T21:40:41.535Z,69.10
2018-12-15T21:45:43.817Z,64.47
2018-12-15T21:50:46.038Z,61.37
2018-12-15T21:55:48.332Z,67.63
2018-12-15T22:00:51.677Z,58.23
2018-12-15T22:05:54.036Z,58.73
2018-12-15T22:10:56.431Z,57.47
2018-12-15T22:15:58.714Z,58.80
2018-12-15T22:21:01.140Z,61.03
2018-12-15T22:26:03.630Z,57.50
2018-12-15T22:31:05.904Z,57.13
2018-12-15T22:36:08.351Z,59.10
2018-12-15T22:41:10.670Z,56.50
2018-12-15T22:46:13.057Z,54.63
2018-12-15T22:51:15.364Z,57.57
2018-12-15T22:56:24.545Z,56.43
2018-12-15T23:01:28.885Z,57.50
2018-12-15T23:06:39.927Z,51.17
2018-12-15T23:11:42.204Z,55.73
2018-12-15T23:16:44.615Z,54.50
2018-12-15T23:21:46.846Z,52.13
2018-12-15T23:26:49.126Z,52.03
2018-12-15T23:31:51.432Z,57.60
2018-12-15T23:36:53.702Z,46.80
2018-12-15T23:41:56.076Z,52.30
2018-12-15T23:46:58.318Z,55.03
2018-12-15T23:52:00.551Z,52.97
2018-12-15T23:57:02.971Z,55.80
